sensor_id;sensor_type;location;lat;lon;timestamp;P1;durP1;ratioP1;P2;durP2;ratioP2
44728;SDS011;30457;53.590;9.922;2023-04-24T00:04:19;4.22;;;3.42;;
44728;SDS011;30457;53.590;9.922;2023-04-24T00:08:45;4.65;;;3.20;;
44728;SDS011;30457;53.590;9.922;2023-04-24T00:13:11;3.67;;;3.33;;
44728;SDS011;30457;53.590;9.922;2023-04-24T00:17:36;5.63;;;3.72;;
44728;SDS011;30457;53.590;9.922;2023-04-24T00:22:02;4.32;;;2.85;;
44728;SDS011;30457;53.590;9.922;2023-04-24T00:26:28;3.40;;;3.10;;
44728;SDS011;30457;53.590;9.922;2023-04-24T00:30:54;3.72;;;3.10;;
44728;SDS011;30457;53.590;9.922;2023-04-24T00:35:19;4.05;;;3.33;;
44728;SDS011;30457;53.590;9.922;2023-04-24T00:39:45;3.85;;;3.47;;
44728;SDS011;30457;53.590;9.922;2023-04-24T00:44:10;3.72;;;3.08;;
44728;SDS011;30457;53.590;9.922;2023-04-24T00:48:37;5.68;;;3.42;;
44728;SDS011;30457;53.590;9.922;2023-04-24T00:53:04;3.67;;;3.38;;
44728;SDS011;30457;53.590;9.922;2023-04-24T00:57:30;4.05;;;3.30;;
44728;SDS011;30457;53.590;9.922;2023-04-24T01:01:56;4.25;;;2.95;;
44728;SDS011;30457;53.590;9.922;2023-04-24T01:06:23;4.82;;;2.92;;
44728;SDS011;30457;53.590;9.922;2023-04-24T01:10:53;2.78;;;2.55;;
44728;SDS011;30457;53.590;9.922;2023-04-24T01:15:19;3.05;;;2.60;;
44728;SDS011;30457;53.590;9.922;2023-04-24T01:19:45;3.15;;;2.80;;
44728;SDS011;30457;53.590;9.922;2023-04-24T01:24:11;3.13;;;2.50;;
44728;SDS011;30457;53.590;9.922;2023-04-24T01:28:37;3.28;;;2.75;;
44728;SDS011;30457;53.590;9.922;2023-04-24T01:33:04;3.42;;;2.63;;
44728;SDS011;30457;53.590;9.922;2023-04-24T01:37:30;3.45;;;2.60;;
44728;SDS011;30457;53.590;9.922;2023-04-24T01:41:57;3.88;;;2.30;;
44728;SDS011;30457;53.590;9.922;2023-04-24T01:46:22;4.05;;;2.53;;
44728;SDS011;30457;53.590;9.922;2023-04-24T01:50:48;2.10;;;1.90;;
44728;SDS011;30457;53.590;9.922;2023-04-24T01:55:14;2.33;;;2.13;;
44728;SDS011;30457;53.590;9.922;2023-04-24T01:59:40;5.70;;;2.03;;
44728;SDS011;30457;53.590;9.922;2023-04-24T02:04:05;2.45;;;1.80;;
44728;SDS011;30457;53.590;9.922;2023-04-24T02:08:34;3.63;;;1.70;;
44728;SDS011;30457;53.590;9.922;2023-04-24T02:12:59;2.15;;;1.40;;
44728;SDS011;30457;53.590;9.922;2023-04-24T02:17:25;1.20;;;1.10;;
44728;SDS011;30457;53.590;9.922;2023-04-24T02:21:51;1.70;;;1.08;;
44728;SDS011;30457;53.590;9.922;2023-04-24T02:26:17;2.15;;;1.38;;
44728;SDS011;30457;53.590;9.922;2023-04-24T02:30:43;1.10;;;1.00;;
44728;SDS011;30457;53.590;9.922;2023-04-24T02:35:08;1.58;;;0.98;;
44728;SDS011;30457;53.590;9.922;2023-04-24T02:39:34;1.80;;;1.10;;
44728;SDS011;30457;53.590;9.922;2023-04-24T02:44:01;1.52;;;1.10;;
44728;SDS011;30457;53.590;9.922;2023-04-24T02:48:26;2.42;;;1.25;;
44728;SDS011;30457;53.590;9.922;2023-04-24T02:52:52;2.58;;;2.35;;
44728;SDS011;30457;53.590;9.922;2023-04-24T02:57:18;2.08;;;1.58;;
44728;SDS011;30457;53.590;9.922;2023-04-24T03:01:43;4.68;;;1.90;;
44728;SDS011;30457;53.590;9.922;2023-04-24T03:06:09;1.35;;;1.25;;
44728;SDS011;30457;53.590;9.922;2023-04-24T03:10:35;1.90;;;1.50;;
44728;SDS011;30457;53.590;9.922;2023-04-24T03:15:00;2.47;;;1.80;;
44728;SDS011;30457;53.590;9.922;2023-04-24T03:19:26;2.67;;;1.58;;
44728;SDS011;30457;53.590;9.922;2023-04-24T03:23:59;4.15;;;1.50;;
44728;SDS011;30457;53.590;9.922;2023-04-24T03:28:24;2.53;;;1.17;;
44728;SDS011;30457;53.590;9.922;2023-04-24T03:32:59;2.95;;;1.60;;
44728;SDS011;30457;53.590;9.922;2023-04-24T03:37:28;1.88;;;1.38;;
44728;SDS011;30457;53.590;9.922;2023-04-24T03:42:11;1.60;;;1.20;;
44728;SDS011;30457;53.590;9.922;2023-04-24T03:46:47;1.20;;;1.10;;
44728;SDS011;30457;53.590;9.922;2023-04-24T03:51:13;0.93;;;0.93;;
44728;SDS011;30457;53.590;9.922;2023-04-24T03:55:43;1.00;;;1.00;;
44728;SDS011;30457;53.590;9.922;2023-04-24T04:00:09;1.08;;;0.98;;
44728;SDS011;30457;53.590;9.922;2023-04-24T04:04:39;1.10;;;1.00;;
44728;SDS011;30457;53.590;9.922;2023-04-24T04:09:05;1.15;;;1.08;;
44728;SDS011;30457;53.590;9.922;2023-04-24T04:13:32;1.10;;;1.00;;
44728;SDS011;30457;53.590;9.922;2023-04-24T04:17:58;1.30;;;1.10;;
44728;SDS011;30457;53.590;9.922;2023-04-24T04:22:23;0.93;;;0.93;;
44728;SDS011;30457;53.590;9.922;2023-04-24T04:26:50;1.00;;;1.00;;
44728;SDS011;30457;53.590;9.922;2023-04-24T04:31:24;1.10;;;1.00;;
44728;SDS011;30457;53.590;9.922;2023-04-24T04:35:51;1.20;;;1.10;;
44728;SDS011;30457;53.590;9.922;2023-04-24T04:40:22;1.20;;;1.08;;
44728;SDS011;30457;53.590;9.922;2023-04-24T04:44:54;1.42;;;0.77;;
44728;SDS011;30457;53.590;9.922;2023-04-24T04:49:28;1.80;;;0.85;;
44728;SDS011;30457;53.590;9.922;2023-04-24T04:53:54;2.47;;;1.25;;
44728;SDS011;30457;53.590;9.922;2023-04-24T04:58:21;1.60;;;1.10;;
44728;SDS011;30457;53.590;9.922;2023-04-24T05:02:51;1.33;;;0.90;;
44728;SDS011;30457;53.590;9.922;2023-04-24T05:07:17;2.03;;;1.20;;
44728;SDS011;30457;53.590;9.922;2023-04-24T05:11:48;1.48;;;1.10;;
44728;SDS011;30457;53.590;9.922;2023-04-24T05:16:13;3.08;;;1.17;;
44728;SDS011;30457;53.590;9.922;2023-04-24T05:20:39;0.70;;;0.70;;
44728;SDS011;30457;53.590;9.922;2023-04-24T05:25:05;1.08;;;1.00;;
44728;SDS011;30457;53.590;9.922;2023-04-24T05:29:36;2.25;;;1.00;;
44728;SDS011;30457;53.590;9.922;2023-04-24T05:34:03;4.72;;;1.35;;
44728;SDS011;30457;53.590;9.922;2023-04-24T05:38:30;1.05;;;0.90;;
44728;SDS011;30457;53.590;9.922;2023-04-24T05:42:56;1.80;;;0.90;;
44728;SDS011;30457;53.590;9.922;2023-04-24T05:47:23;3.70;;;1.38;;
44728;SDS011;30457;53.590;9.922;2023-04-24T05:51:50;5.40;;;2.30;;
44728;SDS011;30457;53.590;9.922;2023-04-24T05:56:16;0.77;;;0.77;;
44728;SDS011;30457;53.590;9.922;2023-04-24T06:00:43;0.90;;;0.90;;
44728;SDS011;30457;53.590;9.922;2023-04-24T06:05:11;0.60;;;0.60;;
44728;SDS011;30457;53.590;9.922;2023-04-24T06:09:37;0.80;;;0.80;;
44728;SDS011;30457;53.590;9.922;2023-04-24T06:14:02;0.80;;;0.80;;
44728;SDS011;30457;53.590;9.922;2023-04-24T06:18:36;2.22;;;0.90;;
44728;SDS011;30457;53.590;9.922;2023-04-24T06:23:03;1.25;;;0.80;;
44728;SDS011;30457;53.590;9.922;2023-04-24T06:27:28;1.88;;;0.70;;
44728;SDS011;30457;53.590;9.922;2023-04-24T06:31:54;1.45;;;0.98;;
44728;SDS011;30457;53.590;9.922;2023-04-24T06:36:19;1.20;;;0.93;;
44728;SDS011;30457;53.590;9.922;2023-04-24T06:40:45;1.58;;;0.95;;
44728;SDS011;30457;53.590;9.922;2023-04-24T06:45:11;0.77;;;0.77;;
44728;SDS011;30457;53.590;9.922;2023-04-24T06:49:36;1.10;;;1.00;;
44728;SDS011;30457;53.590;9.922;2023-04-24T06:54:02;1.05;;;1.00;;
44728;SDS011;30457;53.590;9.922;2023-04-24T06:58:28;1.95;;;0.93;;
44728;SDS011;30457;53.590;9.922;2023-04-24T07:02:55;1.27;;;1.00;;
44728;SDS011;30457;53.590;9.922;2023-04-24T07:07:22;2.60;;;1.10;;
44728;SDS011;30457;53.590;9.922;2023-04-24T07:11:48;1.50;;;1.40;;
44728;SDS011;30457;53.590;9.922;2023-04-24T07:16:15;1.20;;;1.10;;
44728;SDS011;30457;53.590;9.922;2023-04-24T07:20:40;2.55;;;1.33;;
44728;SDS011;30457;53.590;9.922;2023-04-24T07:25:06;1.60;;;1.45;;
44728;SDS011;30457;53.590;9.922;2023-04-24T07:29:32;1.60;;;1.50;;
44728;SDS011;30457;53.590;9.922;2023-04-24T07:33:57;1.60;;;1.50;;
44728;SDS011;30457;53.590;9.922;2023-04-24T07:38:23;6.35;;;1.83;;
44728;SDS011;30457;53.590;9.922;2023-04-24T07:42:50;2.30;;;2.10;;
44728;SDS011;30457;53.590;9.922;2023-04-24T07:47:16;2.15;;;2.00;;
44728;SDS011;30457;53.590;9.922;2023-04-24T07:51:42;1.77;;;1.67;;
44728;SDS011;30457;53.590;9.922;2023-04-24T07:56:07;2.63;;;2.03;;
44728;SDS011;30457;53.590;9.922;2023-04-24T08:00:33;2.40;;;2.20;;
44728;SDS011;30457;53.590;9.922;2023-04-24T08:04:58;2.53;;;2.22;;
44728;SDS011;30457;53.590;9.922;2023-04-24T08:09:24;2.63;;;2.42;;
44728;SDS011;30457;53.590;9.922;2023-04-24T08:13:50;2.55;;;2.35;;
44728;SDS011;30457;53.590;9.922;2023-04-24T08:18:15;3.20;;;2.90;;
44728;SDS011;30457;53.590;9.922;2023-04-24T08:22:42;5.10;;;3.20;;
44728;SDS011;30457;53.590;9.922;2023-04-24T08:27:08;3.80;;;3.03;;
44728;SDS011;30457;53.590;9.922;2023-04-24T08:31:34;4.63;;;3.03;;
44728;SDS011;30457;53.590;9.922;2023-04-24T08:36:04;3.70;;;2.83;;
44728;SDS011;30457;53.590;9.922;2023-04-24T08:40:30;2.58;;;2.38;;
44728;SDS011;30457;53.590;9.922;2023-04-24T08:44:59;4.75;;;2.83;;
44728;SDS011;30457;53.590;9.922;2023-04-24T08:49:25;3.15;;;2.75;;
44728;SDS011;30457;53.590;9.922;2023-04-24T08:53:52;4.93;;;2.80;;
44728;SDS011;30457;53.590;9.922;2023-04-24T08:58:19;4.05;;;2.80;;
44728;SDS011;30457;53.590;9.922;2023-04-24T09:02:44;3.78;;;2.75;;
44728;SDS011;30457;53.590;9.922;2023-04-24T09:07:12;3.33;;;3.03;;
44728;SDS011;30457;53.590;9.922;2023-04-24T09:11:41;4.15;;;3.75;;
44728;SDS011;30457;53.590;9.922;2023-04-24T09:16:07;2.80;;;2.60;;
44728;SDS011;30457;53.590;9.922;2023-04-24T09:20:33;4.05;;;2.85;;
44728;SDS011;30457;53.590;9.922;2023-04-24T09:25:02;4.28;;;3.60;;
44728;SDS011;30457;53.590;9.922;2023-04-24T09:29:32;6.07;;;3.55;;
44728;SDS011;30457;53.590;9.922;2023-04-24T09:34:01;3.08;;;2.78;;
44728;SDS011;30457;53.590;9.922;2023-04-24T09:38:31;5.38;;;3.78;;
44728;SDS011;30457;53.590;9.922;2023-04-24T09:42:57;4.03;;;3.00;;
44728;SDS011;30457;53.590;9.922;2023-04-24T09:47:26;3.72;;;3.30;;
44728;SDS011;30457;53.590;9.922;2023-04-24T09:51:51;4.72;;;3.63;;
44728;SDS011;30457;53.590;9.922;2023-04-24T09:56:26;4.47;;;3.28;;
44728;SDS011;30457;53.590;9.922;2023-04-24T10:00:54;4.67;;;3.70;;
44728;SDS011;30457;53.590;9.922;2023-04-24T10:05:27;3.30;;;2.97;;
44728;SDS011;30457;53.590;9.922;2023-04-24T10:09:54;7.93;;;4.20;;
44728;SDS011;30457;53.590;9.922;2023-04-24T10:14:21;4.57;;;4.15;;
44728;SDS011;30457;53.590;9.922;2023-04-24T10:18:50;5.35;;;4.07;;
44728;SDS011;30457;53.590;9.922;2023-04-24T10:23:16;5.53;;;4.88;;
44728;SDS011;30457;53.590;9.922;2023-04-24T10:27:44;5.82;;;4.57;;
44728;SDS011;30457;53.590;9.922;2023-04-24T10:32:11;6.35;;;4.82;;
44728;SDS011;30457;53.590;9.922;2023-04-24T10:36:38;5.70;;;4.97;;
44728;SDS011;30457;53.590;9.922;2023-04-24T10:41:11;6.70;;;4.70;;
44728;SDS011;30457;53.590;9.922;2023-04-24T10:46:01;7.18;;;4.90;;
44728;SDS011;30457;53.590;9.922;2023-04-24T10:50:28;9.52;;;5.15;;
44728;SDS011;30457;53.590;9.922;2023-04-24T10:55:06;5.22;;;4.60;;
44728;SDS011;30457;53.590;9.922;2023-04-24T10:59:34;7.13;;;5.30;;
44728;SDS011;30457;53.590;9.922;2023-04-24T11:04:02;6.00;;;4.40;;
44728;SDS011;30457;53.590;9.922;2023-04-24T11:08:29;6.57;;;4.50;;
44728;SDS011;30457;53.590;9.922;2023-04-24T11:12:56;5.63;;;4.30;;
44728;SDS011;30457;53.590;9.922;2023-04-24T11:17:28;7.40;;;5.10;;
44728;SDS011;30457;53.590;9.922;2023-04-24T11:22:03;6.50;;;4.97;;
44728;SDS011;30457;53.590;9.922;2023-04-24T11:26:29;5.40;;;4.70;;
44728;SDS011;30457;53.590;9.922;2023-04-24T11:31:33;5.80;;;4.85;;
44728;SDS011;30457;53.590;9.922;2023-04-24T11:36:03;6.88;;;5.07;;
44728;SDS011;30457;53.590;9.922;2023-04-24T11:40:29;8.45;;;5.10;;
44728;SDS011;30457;53.590;9.922;2023-04-24T11:44:55;6.93;;;4.57;;
44728;SDS011;30457;53.590;9.922;2023-04-24T11:49:20;7.35;;;5.25;;
44728;SDS011;30457;53.590;9.922;2023-04-24T11:53:46;5.57;;;4.85;;
44728;SDS011;30457;53.590;9.922;2023-04-24T11:58:11;6.78;;;3.78;;
44728;SDS011;30457;53.590;9.922;2023-04-24T12:02:37;6.80;;;4.20;;
44728;SDS011;30457;53.590;9.922;2023-04-24T12:07:03;4.97;;;3.75;;
44728;SDS011;30457;53.590;9.922;2023-04-24T12:11:30;4.57;;;3.88;;
44728;SDS011;30457;53.590;9.922;2023-04-24T12:15:58;4.22;;;3.50;;
44728;SDS011;30457;53.590;9.922;2023-04-24T12:20:26;5.40;;;4.00;;
44728;SDS011;30457;53.590;9.922;2023-04-24T12:29:23;4.95;;;3.47;;
44728;SDS011;30457;53.590;9.922;2023-04-24T12:33:49;6.70;;;3.60;;
44728;SDS011;30457;53.590;9.922;2023-04-24T12:38:15;6.47;;;4.03;;
44728;SDS011;30457;53.590;9.922;2023-04-24T12:42:42;5.35;;;4.00;;
44728;SDS011;30457;53.590;9.922;2023-04-24T12:47:11;3.85;;;3.50;;
44728;SDS011;30457;53.590;9.922;2023-04-24T12:51:38;4.35;;;3.53;;
44728;SDS011;30457;53.590;9.922;2023-04-24T12:56:03;3.35;;;3.05;;
44728;SDS011;30457;53.590;9.922;2023-04-24T13:00:29;6.80;;;3.50;;
44728;SDS011;30457;53.590;9.922;2023-04-24T13:04:55;5.65;;;3.90;;
44728;SDS011;30457;53.590;9.922;2023-04-24T13:09:20;4.03;;;3.50;;
44728;SDS011;30457;53.590;9.922;2023-04-24T13:13:47;4.43;;;3.55;;
44728;SDS011;30457;53.590;9.922;2023-04-24T13:18:12;3.28;;;2.75;;
44728;SDS011;30457;53.590;9.922;2023-04-24T13:22:38;7.28;;;3.17;;
44728;SDS011;30457;53.590;9.922;2023-04-24T13:27:03;4.82;;;3.17;;
44728;SDS011;30457;53.590;9.922;2023-04-24T13:31:29;4.07;;;3.28;;
44728;SDS011;30457;53.590;9.922;2023-04-24T13:35:55;3.15;;;2.88;;
44728;SDS011;30457;53.590;9.922;2023-04-24T13:40:21;3.00;;;2.65;;
44728;SDS011;30457;53.590;9.922;2023-04-24T13:44:46;3.30;;;2.60;;
44728;SDS011;30457;53.590;9.922;2023-04-24T13:49:12;3.72;;;3.42;;
44728;SDS011;30457;53.590;9.922;2023-04-24T13:53:38;3.28;;;2.97;;
44728;SDS011;30457;53.590;9.922;2023-04-24T13:58:04;3.55;;;2.80;;
44728;SDS011;30457;53.590;9.922;2023-04-24T14:02:30;3.10;;;2.78;;
44728;SDS011;30457;53.590;9.922;2023-04-24T14:06:55;3.17;;;2.88;;
44728;SDS011;30457;53.590;9.922;2023-04-24T14:11:21;2.83;;;2.63;;
44728;SDS011;30457;53.590;9.922;2023-04-24T14:15:47;3.05;;;2.63;;
44728;SDS011;30457;53.590;9.922;2023-04-24T14:20:12;3.15;;;2.85;;
44728;SDS011;30457;53.590;9.922;2023-04-24T14:24:38;2.65;;;2.42;;
44728;SDS011;30457;53.590;9.922;2023-04-24T14:29:04;3.20;;;2.83;;
44728;SDS011;30457;53.590;9.922;2023-04-24T14:33:30;3.70;;;3.40;;
44728;SDS011;30457;53.590;9.922;2023-04-24T14:37:55;4.60;;;4.15;;
44728;SDS011;30457;53.590;9.922;2023-04-24T14:42:21;4.38;;;3.97;;
44728;SDS011;30457;53.590;9.922;2023-04-24T14:46:46;4.88;;;3.75;;
44728;SDS011;30457;53.590;9.922;2023-04-24T14:51:13;5.05;;;4.50;;
44728;SDS011;30457;53.590;9.922;2023-04-24T14:55:38;4.25;;;3.80;;
44728;SDS011;30457;53.590;9.922;2023-04-24T15:00:04;4.90;;;4.13;;
44728;SDS011;30457;53.590;9.922;2023-04-24T15:04:33;4.68;;;3.42;;
44728;SDS011;30457;53.590;9.922;2023-04-24T15:08:58;3.45;;;3.15;;
44728;SDS011;30457;53.590;9.922;2023-04-24T15:13:24;3.13;;;2.67;;
44728;SDS011;30457;53.590;9.922;2023-04-24T15:17:50;2.45;;;2.20;;
44728;SDS011;30457;53.590;9.922;2023-04-24T15:22:16;2.00;;;1.55;;
44728;SDS011;30457;53.590;9.922;2023-04-24T15:26:41;1.67;;;1.38;;
44728;SDS011;30457;53.590;9.922;2023-04-24T15:31:07;3.75;;;2.05;;
44728;SDS011;30457;53.590;9.922;2023-04-24T15:35:33;5.65;;;3.00;;
44728;SDS011;30457;53.590;9.922;2023-04-24T15:39:59;1.90;;;1.50;;
44728;SDS011;30457;53.590;9.922;2023-04-24T15:44:25;2.75;;;2.42;;
44728;SDS011;30457;53.590;9.922;2023-04-24T15:48:50;3.72;;;2.50;;
44728;SDS011;30457;53.590;9.922;2023-04-24T15:53:16;5.07;;;3.67;;
44728;SDS011;30457;53.590;9.922;2023-04-24T15:57:47;5.28;;;4.22;;
44728;SDS011;30457;53.590;9.922;2023-04-24T16:02:13;5.60;;;3.97;;
44728;SDS011;30457;53.590;9.922;2023-04-24T16:06:45;5.07;;;4.20;;
44728;SDS011;30457;53.590;9.922;2023-04-24T16:11:11;5.88;;;4.28;;
44728;SDS011;30457;53.590;9.922;2023-04-24T16:15:37;6.00;;;4.07;;
44728;SDS011;30457;53.590;9.922;2023-04-24T16:20:04;3.70;;;2.80;;
44728;SDS011;30457;53.590;9.922;2023-04-24T16:24:30;3.80;;;2.50;;
44728;SDS011;30457;53.590;9.922;2023-04-24T16:28:55;3.33;;;2.20;;
44728;SDS011;30457;53.590;9.922;2023-04-24T16:33:21;2.10;;;1.90;;
44728;SDS011;30457;53.590;9.922;2023-04-24T16:37:46;3.08;;;1.77;;
44728;SDS011;30457;53.590;9.922;2023-04-24T16:42:12;3.80;;;2.58;;
44728;SDS011;30457;53.590;9.922;2023-04-24T16:46:39;4.07;;;1.90;;
44728;SDS011;30457;53.590;9.922;2023-04-24T16:51:04;3.47;;;2.20;;
44728;SDS011;30457;53.590;9.922;2023-04-24T16:55:30;4.60;;;3.50;;
44728;SDS011;30457;53.590;9.922;2023-04-24T16:59:55;5.10;;;3.05;;
44728;SDS011;30457;53.590;9.922;2023-04-24T17:04:21;3.35;;;2.35;;
44728;SDS011;30457;53.590;9.922;2023-04-24T17:08:47;4.18;;;2.40;;
44728;SDS011;30457;53.590;9.922;2023-04-24T17:13:12;16.52;;;3.60;;
44728;SDS011;30457;53.590;9.922;2023-04-24T17:17:38;3.60;;;2.38;;
44728;SDS011;30457;53.590;9.922;2023-04-24T17:22:06;3.30;;;2.38;;
44728;SDS011;30457;53.590;9.922;2023-04-24T17:26:31;3.72;;;2.83;;
44728;SDS011;30457;53.590;9.922;2023-04-24T17:30:57;2.88;;;2.55;;
44728;SDS011;30457;53.590;9.922;2023-04-24T17:35:23;4.18;;;2.28;;
44728;SDS011;30457;53.590;9.922;2023-04-24T17:39:49;5.78;;;2.38;;
44728;SDS011;30457;53.590;9.922;2023-04-24T17:44:14;3.13;;;2.20;;
44728;SDS011;30457;53.590;9.922;2023-04-24T17:48:40;2.83;;;2.13;;
44728;SDS011;30457;53.590;9.922;2023-04-24T17:53:06;4.93;;;2.25;;
44728;SDS011;30457;53.590;9.922;2023-04-24T17:57:32;5.95;;;2.17;;
44728;SDS011;30457;53.590;9.922;2023-04-24T18:01:58;4.93;;;2.42;;
44728;SDS011;30457;53.590;9.922;2023-04-24T18:06:23;4.45;;;2.53;;
44728;SDS011;30457;53.590;9.922;2023-04-24T18:10:49;4.40;;;2.33;;
44728;SDS011;30457;53.590;9.922;2023-04-24T18:15:14;4.50;;;2.53;;
44728;SDS011;30457;53.590;9.922;2023-04-24T18:19:41;3.08;;;2.60;;
44728;SDS011;30457;53.590;9.922;2023-04-24T18:24:06;4.38;;;2.40;;
44728;SDS011;30457;53.590;9.922;2023-04-24T18:28:32;5.15;;;2.67;;
44728;SDS011;30457;53.590;9.922;2023-04-24T18:32:58;4.05;;;2.13;;
44728;SDS011;30457;53.590;9.922;2023-04-24T18:37:24;3.95;;;1.73;;
44728;SDS011;30457;53.590;9.922;2023-04-24T18:41:50;2.47;;;1.58;;
44728;SDS011;30457;53.590;9.922;2023-04-24T18:46:15;6.22;;;1.50;;
44728;SDS011;30457;53.590;9.922;2023-04-24T18:50:41;9.43;;;2.28;;
44728;SDS011;30457;53.590;9.922;2023-04-24T18:55:07;4.07;;;1.38;;
44728;SDS011;30457;53.590;9.922;2023-04-24T18:59:33;4.97;;;1.23;;
44728;SDS011;30457;53.590;9.922;2023-04-24T19:03:59;3.55;;;1.42;;
44728;SDS011;30457;53.590;9.922;2023-04-24T19:08:25;2.28;;;1.50;;
44728;SDS011;30457;53.590;9.922;2023-04-24T19:12:50;2.92;;;1.00;;
44728;SDS011;30457;53.590;9.922;2023-04-24T19:17:20;3.88;;;1.20;;
44728;SDS011;30457;53.590;9.922;2023-04-24T19:21:49;2.22;;;1.20;;
44728;SDS011;30457;53.590;9.922;2023-04-24T19:26:14;1.17;;;0.85;;
44728;SDS011;30457;53.590;9.922;2023-04-24T19:30:40;3.65;;;1.02;;
44728;SDS011;30457;53.590;9.922;2023-04-24T19:35:06;2.67;;;1.25;;
44728;SDS011;30457;53.590;9.922;2023-04-24T19:39:32;1.95;;;1.20;;
44728;SDS011;30457;53.590;9.922;2023-04-24T19:43:57;4.45;;;1.08;;
44728;SDS011;30457;53.590;9.922;2023-04-24T19:48:23;1.77;;;1.40;;
44728;SDS011;30457;53.590;9.922;2023-04-24T19:52:48;2.70;;;1.63;;
44728;SDS011;30457;53.590;9.922;2023-04-24T19:57:14;2.80;;;1.92;;
44728;SDS011;30457;53.590;9.922;2023-04-24T20:01:40;9.13;;;3.72;;
44728;SDS011;30457;53.590;9.922;2023-04-24T20:06:07;2.83;;;1.98;;
44728;SDS011;30457;53.590;9.922;2023-04-24T20:10:34;2.10;;;1.45;;
44728;SDS011;30457;53.590;9.922;2023-04-24T20:15:01;5.07;;;1.83;;
44728;SDS011;30457;53.590;9.922;2023-04-24T20:19:27;3.65;;;1.70;;
44728;SDS011;30457;53.590;9.922;2023-04-24T20:23:53;3.05;;;1.80;;
44728;SDS011;30457;53.590;9.922;2023-04-24T20:28:19;5.45;;;2.00;;
44728;SDS011;30457;53.590;9.922;2023-04-24T20:32:45;2.17;;;1.45;;
44728;SDS011;30457;53.590;9.922;2023-04-24T20:37:11;4.65;;;2.03;;
44728;SDS011;30457;53.590;9.922;2023-04-24T20:41:37;6.22;;;2.13;;
44728;SDS011;30457;53.590;9.922;2023-04-24T20:46:02;3.70;;;1.60;;
44728;SDS011;30457;53.590;9.922;2023-04-24T20:50:29;1.80;;;1.63;;
44728;SDS011;30457;53.590;9.922;2023-04-24T20:54:57;2.40;;;1.45;;
44728;SDS011;30457;53.590;9.922;2023-04-24T20:59:22;3.33;;;1.70;;
44728;SDS011;30457;53.590;9.922;2023-04-24T21:03:48;4.40;;;1.58;;
44728;SDS011;30457;53.590;9.922;2023-04-24T21:08:13;1.80;;;1.70;;
44728;SDS011;30457;53.590;9.922;2023-04-24T21:12:39;3.88;;;1.90;;
44728;SDS011;30457;53.590;9.922;2023-04-24T21:17:05;3.65;;;1.73;;
44728;SDS011;30457;53.590;9.922;2023-04-24T21:21:30;3.22;;;1.90;;
44728;SDS011;30457;53.590;9.922;2023-04-24T21:25:57;3.05;;;1.67;;
44728;SDS011;30457;53.590;9.922;2023-04-24T21:30:23;3.08;;;1.70;;
44728;SDS011;30457;53.590;9.922;2023-04-24T21:34:48;3.35;;;1.70;;
44728;SDS011;30457;53.590;9.922;2023-04-24T21:39:14;2.42;;;1.50;;
44728;SDS011;30457;53.590;9.922;2023-04-24T21:43:40;5.82;;;1.80;;
44728;SDS011;30457;53.590;9.922;2023-04-24T21:48:05;2.25;;;1.58;;
44728;SDS011;30457;53.590;9.922;2023-04-24T21:52:31;2.72;;;1.85;;
44728;SDS011;30457;53.590;9.922;2023-04-24T21:56:56;3.47;;;2.42;;
44728;SDS011;30457;53.590;9.922;2023-04-24T22:01:22;2.95;;;1.92;;
44728;SDS011;30457;53.590;9.922;2023-04-24T22:05:47;4.70;;;1.75;;
44728;SDS011;30457;53.590;9.922;2023-04-24T22:10:14;3.50;;;1.85;;
44728;SDS011;30457;53.590;9.922;2023-04-24T22:14:40;2.28;;;1.77;;
44728;SDS011;30457;53.590;9.922;2023-04-24T22:19:05;2.60;;;1.90;;
44728;SDS011;30457;53.590;9.922;2023-04-24T22:23:31;3.47;;;1.70;;
44728;SDS011;30457;53.590;9.922;2023-04-24T22:27:57;2.42;;;1.92;;
44728;SDS011;30457;53.590;9.922;2023-04-24T22:32:22;6.45;;;2.17;;
44728;SDS011;30457;53.590;9.922;2023-04-24T22:36:51;3.83;;;1.95;;
44728;SDS011;30457;53.590;9.922;2023-04-24T22:41:17;4.47;;;2.08;;
44728;SDS011;30457;53.590;9.922;2023-04-24T22:45:42;6.90;;;2.38;;
44728;SDS011;30457;53.590;9.922;2023-04-24T22:50:08;3.53;;;2.30;;
44728;SDS011;30457;53.590;9.922;2023-04-24T22:54:34;5.50;;;2.70;;
44728;SDS011;30457;53.590;9.922;2023-04-24T22:59:00;3.10;;;2.20;;
44728;SDS011;30457;53.590;9.922;2023-04-24T23:07:52;5.97;;;2.58;;
44728;SDS011;30457;53.590;9.922;2023-04-24T23:12:18;3.97;;;2.15;;
44728;SDS011;30457;53.590;9.922;2023-04-24T23:16:43;7.05;;;2.05;;
44728;SDS011;30457;53.590;9.922;2023-04-24T23:21:10;2.40;;;2.20;;
44728;SDS011;30457;53.590;9.922;2023-04-24T23:25:36;2.45;;;2.13;;
44728;SDS011;30457;53.590;9.922;2023-04-24T23:30:02;3.78;;;2.20;;
44728;SDS011;30457;53.590;9.922;2023-04-24T23:34:31;5.68;;;2.00;;
44728;SDS011;30457;53.590;9.922;2023-04-24T23:38:57;2.55;;;2.00;;
44728;SDS011;30457;53.590;9.922;2023-04-24T23:43:23;4.63;;;2.03;;
44728;SDS011;30457;53.590;9.922;2023-04-24T23:47:49;3.17;;;2.20;;
44728;SDS011;30457;53.590;9.922;2023-04-24T23:52:15;3.63;;;2.20;;
44728;SDS011;30457;53.590;9.922;2023-04-24T23:56:40;6.25;;;2.03;;
